sensor_id;sensor_type;location;lat;lon;timestamp;P1;durP1;ratioP1;P2;durP2;ratioP2
20611;SDS011;10465;42.686;23.364;2022-12-24T00:01:09;60.38;;;32.38;;
20611;SDS011;10465;42.686;23.364;2022-12-24T00:03:35;50.78;;;31.17;;
20611;SDS011;10465;42.686;23.364;2022-12-24T00:06:09;55.83;;;31.38;;
20611;SDS011;10465;42.686;23.364;2022-12-24T00:08:40;54.72;;;33.25;;
20611;SDS011;10465;42.686;23.364;2022-12-24T00:11:06;47.33;;;29.73;;
20611;SDS011;10465;42.686;23.364;2022-12-24T00:13:32;43.75;;;27.77;;
20611;SDS011;10465;42.686;23.364;2022-12-24T00:15:58;42.22;;;23.55;;
20611;SDS011;10465;42.686;23.364;2022-12-24T00:18:24;37.83;;;22.33;;
20611;SDS011;10465;42.686;23.364;2022-12-24T00:20:49;31.80;;;20.08;;
20611;SDS011;10465;42.686;23.364;2022-12-24T00:23:15;33.55;;;19.58;;
20611;SDS011;10465;42.686;23.364;2022-12-24T00:25:41;40.40;;;22.50;;
20611;SDS011;10465;42.686;23.364;2022-12-24T00:28:07;40.83;;;25.30;;
20611;SDS011;10465;42.686;23.364;2022-12-24T00:30:33;43.03;;;26.45;;
20611;SDS011;10465;42.686;23.364;2022-12-24T00:32:58;49.22;;;29.60;;
20611;SDS011;10465;42.686;23.364;2022-12-24T00:35:24;40.47;;;25.35;;
20611;SDS011;10465;42.686;23.364;2022-12-24T00:37:49;44.83;;;27.77;;
20611;SDS011;10465;42.686;23.364;2022-12-24T00:40:15;44.40;;;29.80;;
20611;SDS011;10465;42.686;23.364;2022-12-24T00:42:41;47.55;;;28.85;;
20611;SDS011;10465;42.686;23.364;2022-12-24T00:45:07;52.55;;;30.45;;
20611;SDS011;10465;42.686;23.364;2022-12-24T00:47:33;50.53;;;29.50;;
20611;SDS011;10465;42.686;23.364;2022-12-24T00:49:59;60.55;;;35.17;;
20611;SDS011;10465;42.686;23.364;2022-12-24T00:52:24;68.45;;;39.10;;
20611;SDS011;10465;42.686;23.364;2022-12-24T00:54:50;73.85;;;44.55;;
20611;SDS011;10465;42.686;23.364;2022-12-24T00:57:15;95.10;;;54.95;;
20611;SDS011;10465;42.686;23.364;2022-12-24T00:59:48;97.25;;;54.67;;
20611;SDS011;10465;42.686;23.364;2022-12-24T01:02:13;94.78;;;54.83;;
20611;SDS011;10465;42.686;23.364;2022-12-24T01:04:39;117.55;;;65.80;;
20611;SDS011;10465;42.686;23.364;2022-12-24T01:07:23;124.88;;;67.57;;
20611;SDS011;10465;42.686;23.364;2022-12-24T01:09:48;135.43;;;74.60;;
20611;SDS011;10465;42.686;23.364;2022-12-24T01:12:14;133.98;;;75.72;;
20611;SDS011;10465;42.686;23.364;2022-12-24T01:14:39;122.03;;;64.25;;
20611;SDS011;10465;42.686;23.364;2022-12-24T01:17:05;140.60;;;78.80;;
20611;SDS011;10465;42.686;23.364;2022-12-24T01:19:31;160.55;;;85.45;;
20611;SDS011;10465;42.686;23.364;2022-12-24T01:21:57;150.18;;;81.78;;
20611;SDS011;10465;42.686;23.364;2022-12-24T01:24:23;128.30;;;72.43;;
20611;SDS011;10465;42.686;23.364;2022-12-24T01:26:48;133.90;;;74.65;;
20611;SDS011;10465;42.686;23.364;2022-12-24T01:29:14;115.05;;;63.85;;
20611;SDS011;10465;42.686;23.364;2022-12-24T01:31:39;103.70;;;58.30;;
20611;SDS011;10465;42.686;23.364;2022-12-24T01:34:05;121.68;;;69.20;;
20611;SDS011;10465;42.686;23.364;2022-12-24T01:36:30;125.60;;;69.10;;
20611;SDS011;10465;42.686;23.364;2022-12-24T01:38:56;120.43;;;66.57;;
20611;SDS011;10465;42.686;23.364;2022-12-24T01:41:22;125.68;;;67.63;;
20611;SDS011;10465;42.686;23.364;2022-12-24T01:44:26;125.90;;;69.75;;
20611;SDS011;10465;42.686;23.364;2022-12-24T01:47:04;121.57;;;66.25;;
20611;SDS011;10465;42.686;23.364;2022-12-24T01:49:36;105.75;;;59.70;;
20611;SDS011;10465;42.686;23.364;2022-12-24T01:52:07;110.65;;;60.38;;
20611;SDS011;10465;42.686;23.364;2022-12-24T01:54:40;104.32;;;59.85;;
20611;SDS011;10465;42.686;23.364;2022-12-24T01:57:23;108.53;;;60.05;;
20611;SDS011;10465;42.686;23.364;2022-12-24T01:59:54;104.68;;;57.40;;
20611;SDS011;10465;42.686;23.364;2022-12-24T02:02:25;112.70;;;58.67;;
20611;SDS011;10465;42.686;23.364;2022-12-24T02:04:56;105.05;;;58.80;;
20611;SDS011;10465;42.686;23.364;2022-12-24T02:07:26;105.88;;;59.50;;
20611;SDS011;10465;42.686;23.364;2022-12-24T02:09:53;114.05;;;61.95;;
20611;SDS011;10465;42.686;23.364;2022-12-24T02:12:21;117.50;;;63.25;;
20611;SDS011;10465;42.686;23.364;2022-12-24T02:14:48;124.88;;;67.85;;
20611;SDS011;10465;42.686;23.364;2022-12-24T02:31:43;127.90;;;71.10;;
20611;SDS011;10465;42.686;23.364;2022-12-24T02:34:37;128.07;;;70.43;;
20611;SDS011;10465;42.686;23.364;2022-12-24T02:39:51;129.10;;;72.20;;
20611;SDS011;10465;42.686;23.364;2022-12-24T02:42:22;112.53;;;66.85;;
20611;SDS011;10465;42.686;23.364;2022-12-24T02:44:54;123.07;;;68.95;;
20611;SDS011;10465;42.686;23.364;2022-12-24T02:47:25;127.30;;;70.30;;
20611;SDS011;10465;42.686;23.364;2022-12-24T02:49:52;130.32;;;70.53;;
20611;SDS011;10465;42.686;23.364;2022-12-24T02:52:31;131.80;;;72.18;;
20611;SDS011;10465;42.686;23.364;2022-12-24T02:55:00;130.65;;;72.43;;
20611;SDS011;10465;42.686;23.364;2022-12-24T02:57:42;122.82;;;70.65;;
20611;SDS011;10465;42.686;23.364;2022-12-24T03:00:34;131.07;;;71.95;;
20611;SDS011;10465;42.686;23.364;2022-12-24T03:03:11;130.27;;;72.82;;
20611;SDS011;10465;42.686;23.364;2022-12-24T03:05:45;133.32;;;74.20;;
20611;SDS011;10465;42.686;23.364;2022-12-24T03:11:03;128.63;;;73.32;;
20611;SDS011;10465;42.686;23.364;2022-12-24T03:13:33;126.05;;;74.03;;
20611;SDS011;10465;42.686;23.364;2022-12-24T03:15:59;133.90;;;76.47;;
20611;SDS011;10465;42.686;23.364;2022-12-24T03:18:29;137.00;;;79.63;;
20611;SDS011;10465;42.686;23.364;2022-12-24T03:21:06;161.98;;;86.80;;
20611;SDS011;10465;42.686;23.364;2022-12-24T03:23:36;163.27;;;92.20;;
20611;SDS011;10465;42.686;23.364;2022-12-24T03:26:04;168.55;;;91.35;;
20611;SDS011;10465;42.686;23.364;2022-12-24T03:28:32;169.77;;;91.78;;
20611;SDS011;10465;42.686;23.364;2022-12-24T03:31:00;177.27;;;96.30;;
20611;SDS011;10465;42.686;23.364;2022-12-24T03:33:27;189.15;;;97.30;;
20611;SDS011;10465;42.686;23.364;2022-12-24T03:35:53;176.27;;;96.53;;
20611;SDS011;10465;42.686;23.364;2022-12-24T03:38:19;167.20;;;94.65;;
20611;SDS011;10465;42.686;23.364;2022-12-24T03:40:44;173.27;;;92.07;;
20611;SDS011;10465;42.686;23.364;2022-12-24T03:43:10;174.00;;;96.32;;
20611;SDS011;10465;42.686;23.364;2022-12-24T03:45:35;176.88;;;96.60;;
20611;SDS011;10465;42.686;23.364;2022-12-24T03:48:01;167.50;;;94.03;;
20611;SDS011;10465;42.686;23.364;2022-12-24T03:50:26;182.23;;;94.80;;
20611;SDS011;10465;42.686;23.364;2022-12-24T03:52:53;173.52;;;94.55;;
20611;SDS011;10465;42.686;23.364;2022-12-24T03:55:19;158.77;;;91.47;;
20611;SDS011;10465;42.686;23.364;2022-12-24T03:57:44;163.73;;;93.43;;
20611;SDS011;10465;42.686;23.364;2022-12-24T04:00:10;154.90;;;83.63;;
20611;SDS011;10465;42.686;23.364;2022-12-24T04:02:35;151.63;;;85.07;;
20611;SDS011;10465;42.686;23.364;2022-12-24T04:05:01;156.63;;;84.18;;
20611;SDS011;10465;42.686;23.364;2022-12-24T04:07:26;148.25;;;82.45;;
20611;SDS011;10465;42.686;23.364;2022-12-24T04:09:52;146.48;;;82.28;;
20611;SDS011;10465;42.686;23.364;2022-12-24T04:12:17;143.65;;;80.80;;
20611;SDS011;10465;42.686;23.364;2022-12-24T04:14:43;137.30;;;78.43;;
20611;SDS011;10465;42.686;23.364;2022-12-24T04:17:08;142.68;;;79.93;;
20611;SDS011;10465;42.686;23.364;2022-12-24T04:19:34;145.48;;;80.93;;
20611;SDS011;10465;42.686;23.364;2022-12-24T04:21:59;137.57;;;75.47;;
20611;SDS011;10465;42.686;23.364;2022-12-24T04:24:25;133.20;;;76.82;;
20611;SDS011;10465;42.686;23.364;2022-12-24T04:26:50;147.52;;;81.53;;
20611;SDS011;10465;42.686;23.364;2022-12-24T04:29:16;136.15;;;74.57;;
20611;SDS011;10465;42.686;23.364;2022-12-24T04:31:41;128.23;;;70.70;;
20611;SDS011;10465;42.686;23.364;2022-12-24T04:34:07;121.10;;;67.45;;
20611;SDS011;10465;42.686;23.364;2022-12-24T04:36:32;135.38;;;72.55;;
20611;SDS011;10465;42.686;23.364;2022-12-24T04:38:58;133.40;;;74.93;;
20611;SDS011;10465;42.686;23.364;2022-12-24T04:41:23;138.25;;;77.50;;
20611;SDS011;10465;42.686;23.364;2022-12-24T04:43:49;132.02;;;75.10;;
20611;SDS011;10465;42.686;23.364;2022-12-24T04:46:16;130.50;;;72.63;;
20611;SDS011;10465;42.686;23.364;2022-12-24T04:48:47;128.30;;;70.90;;
20611;SDS011;10465;42.686;23.364;2022-12-24T04:51:14;118.57;;;66.28;;
20611;SDS011;10465;42.686;23.364;2022-12-24T04:53:41;113.22;;;64.25;;
20611;SDS011;10465;42.686;23.364;2022-12-24T04:56:14;126.38;;;70.07;;
20611;SDS011;10465;42.686;23.364;2022-12-24T04:58:42;116.95;;;70.38;;
20611;SDS011;10465;42.686;23.364;2022-12-24T05:01:10;130.93;;;73.20;;
20611;SDS011;10465;42.686;23.364;2022-12-24T05:03:37;136.82;;;78.38;;
20611;SDS011;10465;42.686;23.364;2022-12-24T05:06:03;157.88;;;87.85;;
20611;SDS011;10465;42.686;23.364;2022-12-24T05:08:31;160.43;;;88.90;;
20611;SDS011;10465;42.686;23.364;2022-12-24T05:10:58;159.68;;;87.03;;
20611;SDS011;10465;42.686;23.364;2022-12-24T05:13:24;171.32;;;90.60;;
20611;SDS011;10465;42.686;23.364;2022-12-24T05:15:51;167.93;;;89.38;;
20611;SDS011;10465;42.686;23.364;2022-12-24T05:18:17;173.77;;;89.78;;
20611;SDS011;10465;42.686;23.364;2022-12-24T05:20:42;176.90;;;91.22;;
20611;SDS011;10465;42.686;23.364;2022-12-24T05:23:09;173.63;;;93.22;;
20611;SDS011;10465;42.686;23.364;2022-12-24T05:25:58;173.57;;;93.68;;
20611;SDS011;10465;42.686;23.364;2022-12-24T05:28:42;178.93;;;93.60;;
20611;SDS011;10465;42.686;23.364;2022-12-24T05:31:08;178.35;;;92.82;;
20611;SDS011;10465;42.686;23.364;2022-12-24T05:33:33;186.02;;;100.07;;
20611;SDS011;10465;42.686;23.364;2022-12-24T05:35:59;182.63;;;98.70;;
20611;SDS011;10465;42.686;23.364;2022-12-24T05:38:24;183.00;;;96.45;;
20611;SDS011;10465;42.686;23.364;2022-12-24T05:40:50;193.18;;;102.28;;
20611;SDS011;10465;42.686;23.364;2022-12-24T05:43:15;190.70;;;101.97;;
20611;SDS011;10465;42.686;23.364;2022-12-24T05:45:40;187.85;;;100.50;;
20611;SDS011;10465;42.686;23.364;2022-12-24T05:48:06;184.43;;;100.28;;
20611;SDS011;10465;42.686;23.364;2022-12-24T05:50:32;182.20;;;98.40;;
20611;SDS011;10465;42.686;23.364;2022-12-24T05:52:58;178.07;;;95.90;;
20611;SDS011;10465;42.686;23.364;2022-12-24T05:55:23;173.80;;;91.25;;
20611;SDS011;10465;42.686;23.364;2022-12-24T05:57:49;181.43;;;99.95;;
20611;SDS011;10465;42.686;23.364;2022-12-24T06:00:14;181.55;;;99.90;;
20611;SDS011;10465;42.686;23.364;2022-12-24T06:02:40;179.65;;;98.78;;
20611;SDS011;10465;42.686;23.364;2022-12-24T06:05:05;179.65;;;100.07;;
20611;SDS011;10465;42.686;23.364;2022-12-24T06:07:31;180.90;;;102.18;;
20611;SDS011;10465;42.686;23.364;2022-12-24T06:09:56;188.52;;;102.80;;
20611;SDS011;10465;42.686;23.364;2022-12-24T06:12:22;186.32;;;101.32;;
20611;SDS011;10465;42.686;23.364;2022-12-24T06:14:47;185.75;;;103.22;;
20611;SDS011;10465;42.686;23.364;2022-12-24T06:17:13;197.32;;;105.50;;
20611;SDS011;10465;42.686;23.364;2022-12-24T06:19:38;194.00;;;102.88;;
20611;SDS011;10465;42.686;23.364;2022-12-24T06:22:03;184.82;;;97.10;;
20611;SDS011;10465;42.686;23.364;2022-12-24T06:24:29;170.35;;;89.13;;
20611;SDS011;10465;42.686;23.364;2022-12-24T06:26:54;156.45;;;82.88;;
20611;SDS011;10465;42.686;23.364;2022-12-24T06:29:20;160.57;;;78.22;;
20611;SDS011;10465;42.686;23.364;2022-12-24T06:31:45;141.77;;;73.03;;
20611;SDS011;10465;42.686;23.364;2022-12-24T06:34:10;138.65;;;70.70;;
20611;SDS011;10465;42.686;23.364;2022-12-24T06:36:36;131.90;;;66.18;;
20611;SDS011;10465;42.686;23.364;2022-12-24T06:39:01;126.93;;;64.03;;
20611;SDS011;10465;42.686;23.364;2022-12-24T06:41:27;134.25;;;63.92;;
20611;SDS011;10465;42.686;23.364;2022-12-24T06:43:53;119.13;;;63.75;;
20611;SDS011;10465;42.686;23.364;2022-12-24T06:46:18;148.43;;;72.30;;
20611;SDS011;10465;42.686;23.364;2022-12-24T06:48:45;150.60;;;77.55;;
20611;SDS011;10465;42.686;23.364;2022-12-24T06:51:11;150.63;;;74.63;;
20611;SDS011;10465;42.686;23.364;2022-12-24T06:53:38;127.63;;;70.45;;
20611;SDS011;10465;42.686;23.364;2022-12-24T06:56:04;144.63;;;71.60;;
20611;SDS011;10465;42.686;23.364;2022-12-24T06:58:31;137.70;;;72.00;;
20611;SDS011;10465;42.686;23.364;2022-12-24T07:00:57;138.68;;;73.07;;
20611;SDS011;10465;42.686;23.364;2022-12-24T07:03:25;125.82;;;65.93;;
20611;SDS011;10465;42.686;23.364;2022-12-24T07:05:51;115.07;;;62.45;;
20611;SDS011;10465;42.686;23.364;2022-12-24T07:08:17;105.13;;;56.13;;
20611;SDS011;10465;42.686;23.364;2022-12-24T07:10:43;105.22;;;56.97;;
20611;SDS011;10465;42.686;23.364;2022-12-24T07:13:08;95.93;;;51.50;;
20611;SDS011;10465;42.686;23.364;2022-12-24T07:15:34;90.28;;;50.22;;
20611;SDS011;10465;42.686;23.364;2022-12-24T07:17:59;85.68;;;46.72;;
20611;SDS011;10465;42.686;23.364;2022-12-24T07:20:25;80.25;;;46.22;;
20611;SDS011;10465;42.686;23.364;2022-12-24T07:22:50;75.88;;;43.97;;
20611;SDS011;10465;42.686;23.364;2022-12-24T07:25:16;78.75;;;44.08;;
20611;SDS011;10465;42.686;23.364;2022-12-24T07:27:41;73.60;;;44.85;;
20611;SDS011;10465;42.686;23.364;2022-12-24T07:30:07;87.88;;;47.28;;
20611;SDS011;10465;42.686;23.364;2022-12-24T07:32:33;84.13;;;47.13;;
20611;SDS011;10465;42.686;23.364;2022-12-24T07:34:58;83.38;;;48.80;;
20611;SDS011;10465;42.686;23.364;2022-12-24T07:37:24;76.82;;;47.22;;
20611;SDS011;10465;42.686;23.364;2022-12-24T07:39:49;76.28;;;46.75;;
20611;SDS011;10465;42.686;23.364;2022-12-24T07:42:15;79.53;;;47.78;;
20611;SDS011;10465;42.686;23.364;2022-12-24T07:44:40;82.80;;;46.30;;
20611;SDS011;10465;42.686;23.364;2022-12-24T07:47:06;78.93;;;47.00;;
20611;SDS011;10465;42.686;23.364;2022-12-24T07:49:32;82.50;;;47.65;;
20611;SDS011;10465;42.686;23.364;2022-12-24T07:51:57;85.90;;;47.30;;
20611;SDS011;10465;42.686;23.364;2022-12-24T07:54:22;84.13;;;49.42;;
20611;SDS011;10465;42.686;23.364;2022-12-24T07:56:48;77.88;;;45.03;;
20611;SDS011;10465;42.686;23.364;2022-12-24T07:59:13;75.07;;;42.80;;
20611;SDS011;10465;42.686;23.364;2022-12-24T08:01:39;61.45;;;40.08;;
20611;SDS011;10465;42.686;23.364;2022-12-24T08:04:05;72.53;;;42.20;;
20611;SDS011;10465;42.686;23.364;2022-12-24T08:06:31;77.88;;;43.47;;
20611;SDS011;10465;42.686;23.364;2022-12-24T08:08:56;76.85;;;43.33;;
20611;SDS011;10465;42.686;23.364;2022-12-24T08:11:21;75.95;;;41.42;;
20611;SDS011;10465;42.686;23.364;2022-12-24T08:13:47;71.10;;;41.67;;
20611;SDS011;10465;42.686;23.364;2022-12-24T08:16:12;69.60;;;41.72;;
20611;SDS011;10465;42.686;23.364;2022-12-24T08:18:39;77.97;;;44.88;;
20611;SDS011;10465;42.686;23.364;2022-12-24T08:21:07;78.68;;;46.22;;
20611;SDS011;10465;42.686;23.364;2022-12-24T08:23:34;79.50;;;48.05;;
20611;SDS011;10465;42.686;23.364;2022-12-24T08:26:05;85.72;;;51.65;;
20611;SDS011;10465;42.686;23.364;2022-12-24T08:28:32;91.93;;;52.67;;
20611;SDS011;10465;42.686;23.364;2022-12-24T08:30:57;90.63;;;56.70;;
20611;SDS011;10465;42.686;23.364;2022-12-24T08:33:23;103.35;;;60.30;;
20611;SDS011;10465;42.686;23.364;2022-12-24T08:35:50;102.03;;;62.35;;
20611;SDS011;10465;42.686;23.364;2022-12-24T08:38:17;111.75;;;66.63;;
20611;SDS011;10465;42.686;23.364;2022-12-24T08:40:43;122.75;;;73.30;;
20611;SDS011;10465;42.686;23.364;2022-12-24T08:43:08;120.10;;;67.85;;
20611;SDS011;10465;42.686;23.364;2022-12-24T08:45:34;112.43;;;69.95;;
20611;SDS011;10465;42.686;23.364;2022-12-24T08:48:02;112.82;;;67.13;;
20611;SDS011;10465;42.686;23.364;2022-12-24T08:50:27;108.53;;;67.45;;
20611;SDS011;10465;42.686;23.364;2022-12-24T08:52:53;100.72;;;61.10;;
20611;SDS011;10465;42.686;23.364;2022-12-24T08:55:18;100.15;;;60.40;;
20611;SDS011;10465;42.686;23.364;2022-12-24T08:57:44;100.50;;;59.55;;
20611;SDS011;10465;42.686;23.364;2022-12-24T09:00:10;105.68;;;62.10;;
20611;SDS011;10465;42.686;23.364;2022-12-24T09:02:37;103.95;;;64.78;;
20611;SDS011;10465;42.686;23.364;2022-12-24T09:05:02;95.95;;;60.50;;
20611;SDS011;10465;42.686;23.364;2022-12-24T09:07:28;96.30;;;59.13;;
20611;SDS011;10465;42.686;23.364;2022-12-24T09:09:54;105.25;;;61.95;;
20611;SDS011;10465;42.686;23.364;2022-12-24T09:12:19;99.47;;;60.25;;
20611;SDS011;10465;42.686;23.364;2022-12-24T09:14:45;89.47;;;55.15;;
20611;SDS011;10465;42.686;23.364;2022-12-24T09:17:10;89.82;;;52.50;;
20611;SDS011;10465;42.686;23.364;2022-12-24T09:19:36;80.32;;;51.17;;
20611;SDS011;10465;42.686;23.364;2022-12-24T09:22:01;87.35;;;52.08;;
20611;SDS011;10465;42.686;23.364;2022-12-24T09:24:27;91.55;;;53.03;;
20611;SDS011;10465;42.686;23.364;2022-12-24T09:26:52;97.55;;;56.15;;
20611;SDS011;10465;42.686;23.364;2022-12-24T09:29:18;96.97;;;57.17;;
20611;SDS011;10465;42.686;23.364;2022-12-24T09:31:43;95.00;;;55.40;;
20611;SDS011;10465;42.686;23.364;2022-12-24T09:34:08;93.00;;;51.75;;
20611;SDS011;10465;42.686;23.364;2022-12-24T09:36:34;83.45;;;51.60;;
20611;SDS011;10465;42.686;23.364;2022-12-24T09:38:59;84.65;;;47.83;;
20611;SDS011;10465;42.686;23.364;2022-12-24T09:43:53;78.40;;;46.67;;
20611;SDS011;10465;42.686;23.364;2022-12-24T09:49:02;84.10;;;50.15;;
20611;SDS011;10465;42.686;23.364;2022-12-24T09:51:48;87.80;;;51.20;;
20611;SDS011;10465;42.686;23.364;2022-12-24T09:56:57;79.88;;;46.30;;
20611;SDS011;10465;42.686;23.364;2022-12-24T09:59:40;78.20;;;44.25;;
20611;SDS011;10465;42.686;23.364;2022-12-24T10:02:12;76.28;;;44.42;;
20611;SDS011;10465;42.686;23.364;2022-12-24T10:04:39;75.78;;;45.83;;
20611;SDS011;10465;42.686;23.364;2022-12-24T10:15:38;76.28;;;44.78;;
20611;SDS011;10465;42.686;23.364;2022-12-24T10:28:54;87.10;;;53.05;;
20611;SDS011;10465;42.686;23.364;2022-12-24T10:31:25;89.13;;;51.30;;
20611;SDS011;10465;42.686;23.364;2022-12-24T10:34:01;87.32;;;50.50;;
20611;SDS011;10465;42.686;23.364;2022-12-24T10:36:31;84.80;;;49.67;;
20611;SDS011;10465;42.686;23.364;2022-12-24T10:38:57;81.90;;;49.08;;
20611;SDS011;10465;42.686;23.364;2022-12-24T10:41:26;83.80;;;47.55;;
20611;SDS011;10465;42.686;23.364;2022-12-24T10:43:53;80.35;;;47.50;;
20611;SDS011;10465;42.686;23.364;2022-12-24T10:46:30;72.55;;;46.08;;
20611;SDS011;10465;42.686;23.364;2022-12-24T10:49:01;77.93;;;47.33;;
20611;SDS011;10465;42.686;23.364;2022-12-24T10:54:12;76.47;;;46.30;;
20611;SDS011;10465;42.686;23.364;2022-12-24T10:56:42;79.90;;;46.15;;
20611;SDS011;10465;42.686;23.364;2022-12-24T11:01:58;78.85;;;48.75;;
20611;SDS011;10465;42.686;23.364;2022-12-24T11:04:25;74.85;;;46.53;;
20611;SDS011;10465;42.686;23.364;2022-12-24T11:07:03;79.45;;;47.63;;
20611;SDS011;10465;42.686;23.364;2022-12-24T11:09:31;77.53;;;47.75;;
20611;SDS011;10465;42.686;23.364;2022-12-24T11:11:59;81.05;;;47.70;;
20611;SDS011;10465;42.686;23.364;2022-12-24T11:14:29;72.43;;;44.53;;
20611;SDS011;10465;42.686;23.364;2022-12-24T11:16:58;72.45;;;41.97;;
20611;SDS011;10465;42.686;23.364;2022-12-24T11:19:34;77.10;;;45.78;;
20611;SDS011;10465;42.686;23.364;2022-12-24T11:22:46;73.20;;;44.63;;
20611;SDS011;10465;42.686;23.364;2022-12-24T11:24:57;72.63;;;41.17;;
20611;SDS011;10465;42.686;23.364;2022-12-24T11:27:45;62.33;;;38.63;;
20611;SDS011;10465;42.686;23.364;2022-12-24T11:32:40;56.60;;;33.53;;
20611;SDS011;10465;42.686;23.364;2022-12-24T11:35:06;57.65;;;35.13;;
20611;SDS011;10465;42.686;23.364;2022-12-24T11:37:45;65.18;;;38.78;;
20611;SDS011;10465;42.686;23.364;2022-12-24T11:40:22;64.20;;;37.40;;
20611;SDS011;10465;42.686;23.364;2022-12-24T11:42:50;55.85;;;34.40;;
20611;SDS011;10465;42.686;23.364;2022-12-24T11:45:21;50.95;;;32.22;;
20611;SDS011;10465;42.686;23.364;2022-12-24T11:47:50;52.80;;;32.53;;
20611;SDS011;10465;42.686;23.364;2022-12-24T11:50:18;52.60;;;33.75;;
20611;SDS011;10465;42.686;23.364;2022-12-24T11:58:10;41.63;;;27.88;;
20611;SDS011;10465;42.686;23.364;2022-12-24T12:00:49;47.58;;;30.70;;
20611;SDS011;10465;42.686;23.364;2022-12-24T12:03:27;41.70;;;27.60;;
20611;SDS011;10465;42.686;23.364;2022-12-24T12:05:54;35.50;;;23.73;;
20611;SDS011;10465;42.686;23.364;2022-12-24T12:08:23;39.63;;;23.17;;
20611;SDS011;10465;42.686;23.364;2022-12-24T12:10:50;39.60;;;23.65;;
20611;SDS011;10465;42.686;23.364;2022-12-24T12:13:28;37.45;;;23.17;;
20611;SDS011;10465;42.686;23.364;2022-12-24T12:18:47;39.50;;;23.35;;
20611;SDS011;10465;42.686;23.364;2022-12-24T12:21:20;41.20;;;24.98;;
20611;SDS011;10465;42.686;23.364;2022-12-24T12:24:03;40.00;;;24.40;;
20611;SDS011;10465;42.686;23.364;2022-12-24T12:26:36;41.67;;;25.40;;
20611;SDS011;10465;42.686;23.364;2022-12-24T12:29:22;38.65;;;25.70;;
20611;SDS011;10465;42.686;23.364;2022-12-24T12:31:58;39.65;;;25.58;;
20611;SDS011;10465;42.686;23.364;2022-12-24T12:34:31;64.03;;;37.85;;
20611;SDS011;10465;42.686;23.364;2022-12-24T12:37:17;67.38;;;41.17;;
20611;SDS011;10465;42.686;23.364;2022-12-24T12:39:55;64.78;;;41.78;;
20611;SDS011;10465;42.686;23.364;2022-12-24T12:42:25;73.65;;;45.92;;
20611;SDS011;10465;42.686;23.364;2022-12-24T12:50:42;88.97;;;53.78;;
20611;SDS011;10465;42.686;23.364;2022-12-24T12:55:54;97.13;;;57.45;;
20611;SDS011;10465;42.686;23.364;2022-12-24T12:58:25;98.82;;;61.22;;
20611;SDS011;10465;42.686;23.364;2022-12-24T13:00:59;100.65;;;61.65;;
20611;SDS011;10465;42.686;23.364;2022-12-24T13:06:06;90.22;;;57.08;;
20611;SDS011;10465;42.686;23.364;2022-12-24T13:12:03;91.63;;;54.95;;
20611;SDS011;10465;42.686;23.364;2022-12-24T13:22:37;86.43;;;50.95;;
20611;SDS011;10465;42.686;23.364;2022-12-24T13:25:03;77.75;;;49.35;;
20611;SDS011;10465;42.686;23.364;2022-12-24T13:27:30;78.95;;;47.55;;
20611;SDS011;10465;42.686;23.364;2022-12-24T13:29:59;78.68;;;47.58;;
20611;SDS011;10465;42.686;23.364;2022-12-24T13:34:52;75.57;;;46.88;;
20611;SDS011;10465;42.686;23.364;2022-12-24T13:42:46;80.95;;;48.95;;
20611;SDS011;10465;42.686;23.364;2022-12-24T13:47:57;82.50;;;49.35;;
20611;SDS011;10465;42.686;23.364;2022-12-24T13:58:37;85.07;;;50.38;;
20611;SDS011;10465;42.686;23.364;2022-12-24T14:01:09;85.20;;;50.47;;
20611;SDS011;10465;42.686;23.364;2022-12-24T14:03:41;82.43;;;49.50;;
20611;SDS011;10465;42.686;23.364;2022-12-24T14:06:08;82.22;;;49.75;;
20611;SDS011;10465;42.686;23.364;2022-12-24T14:08:42;80.15;;;48.50;;
20611;SDS011;10465;42.686;23.364;2022-12-24T14:11:14;79.47;;;48.13;;
20611;SDS011;10465;42.686;23.364;2022-12-24T14:16:28;80.47;;;49.53;;
20611;SDS011;10465;42.686;23.364;2022-12-24T14:18:59;78.00;;;49.40;;
20611;SDS011;10465;42.686;23.364;2022-12-24T14:21:28;87.88;;;51.00;;
20611;SDS011;10465;42.686;23.364;2022-12-24T14:24:11;84.20;;;51.67;;
20611;SDS011;10465;42.686;23.364;2022-12-24T14:26:44;86.65;;;52.47;;
20611;SDS011;10465;42.686;23.364;2022-12-24T14:29:17;88.28;;;53.17;;
20611;SDS011;10465;42.686;23.364;2022-12-24T14:31:54;89.53;;;53.83;;
20611;SDS011;10465;42.686;23.364;2022-12-24T14:34:21;102.40;;;61.17;;
20611;SDS011;10465;42.686;23.364;2022-12-24T14:36:48;121.30;;;66.43;;
20611;SDS011;10465;42.686;23.364;2022-12-24T14:39:20;100.93;;;59.25;;
20611;SDS011;10465;42.686;23.364;2022-12-24T14:44:47;96.40;;;57.95;;
20611;SDS011;10465;42.686;23.364;2022-12-24T14:50:14;92.68;;;54.67;;
20611;SDS011;10465;42.686;23.364;2022-12-24T14:55:29;94.95;;;56.65;;
20611;SDS011;10465;42.686;23.364;2022-12-24T15:00:42;94.57;;;55.90;;
20611;SDS011;10465;42.686;23.364;2022-12-24T15:03:11;82.85;;;53.33;;
20611;SDS011;10465;42.686;23.364;2022-12-24T15:05:38;79.78;;;49.97;;
20611;SDS011;10465;42.686;23.364;2022-12-24T15:08:08;65.63;;;43.33;;
20611;SDS011;10465;42.686;23.364;2022-12-24T15:10:43;64.00;;;41.63;;
20611;SDS011;10465;42.686;23.364;2022-12-24T15:15:45;53.15;;;34.00;;
20611;SDS011;10465;42.686;23.364;2022-12-24T15:18:17;50.72;;;31.55;;
20611;SDS011;10465;42.686;23.364;2022-12-24T15:20:48;43.17;;;26.42;;
20611;SDS011;10465;42.686;23.364;2022-12-24T15:23:17;42.78;;;26.73;;
20611;SDS011;10465;42.686;23.364;2022-12-24T15:25:44;40.75;;;24.23;;
20611;SDS011;10465;42.686;23.364;2022-12-24T15:28:19;28.15;;;19.13;;
20611;SDS011;10465;42.686;23.364;2022-12-24T15:30:47;28.02;;;16.75;;
20611;SDS011;10465;42.686;23.364;2022-12-24T15:33:13;22.20;;;15.27;;
20611;SDS011;10465;42.686;23.364;2022-12-24T15:40:58;21.40;;;13.57;;
20611;SDS011;10465;42.686;23.364;2022-12-24T15:43:25;17.65;;;11.93;;
20611;SDS011;10465;42.686;23.364;2022-12-24T15:45:51;19.48;;;11.70;;
20611;SDS011;10465;42.686;23.364;2022-12-24T15:48:21;17.88;;;11.43;;
20611;SDS011;10465;42.686;23.364;2022-12-24T15:50:51;15.90;;;10.55;;
20611;SDS011;10465;42.686;23.364;2022-12-24T15:53:43;19.83;;;11.48;;
20611;SDS011;10465;42.686;23.364;2022-12-24T15:56:12;17.50;;;11.70;;
20611;SDS011;10465;42.686;23.364;2022-12-24T15:59:10;22.35;;;13.60;;
20611;SDS011;10465;42.686;23.364;2022-12-24T16:01:56;58.13;;;34.58;;
20611;SDS011;10465;42.686;23.364;2022-12-24T16:04:41;141.90;;;84.50;;
20611;SDS011;10465;42.686;23.364;2022-12-24T16:07:08;168.30;;;99.95;;
20611;SDS011;10465;42.686;23.364;2022-12-24T16:09:47;223.23;;;125.60;;
20611;SDS011;10465;42.686;23.364;2022-12-24T16:12:20;222.30;;;134.38;;
20611;SDS011;10465;42.686;23.364;2022-12-24T16:14:48;270.65;;;169.15;;
20611;SDS011;10465;42.686;23.364;2022-12-24T16:17:19;282.20;;;191.30;;